createdAt,value
2023-04-18T00:00:47.879Z,55.1188
2023-04-18T00:01:50.205Z,55.1400
2023-04-18T00:02:50.849Z,55.0802
2023-04-18T00:03:52.283Z,55.1822
2023-04-18T00:04:53.723Z,55.3948
2023-04-18T00:05:54.936Z,55.4984
2023-04-18T00:06:56.430Z,55.5828
2023-04-18T00:07:57.795Z,55.7013
2023-04-18T00:08:59.335Z,55.6375
2023-04-18T00:10:00.711Z,55.5752
2023-04-18T00:11:02.164Z,55.5392
2023-04-18T00:12:03.510Z,55.5897
2023-04-18T00:13:05.013Z,55.5100
2023-04-18T00:14:07.169Z,55.5192
2023-04-18T00:15:07.915Z,55.4831
2023-04-18T00:16:09.299Z,55.3617
2023-04-18T00:17:10.849Z,55.3817
2023-04-18T00:18:12.115Z,55.3982
2023-04-18T00:19:13.519Z,55.4445
2023-04-18T00:20:14.959Z,55.4413
2023-04-18T00:21:16.410Z,55.4754
2023-04-18T00:22:17.741Z,55.4554
2023-04-18T00:23:19.241Z,55.3819
2023-04-18T00:24:20.556Z,55.3716
2023-04-18T00:25:21.992Z,55.5454
2023-04-18T00:26:23.622Z,55.5328
2023-04-18T00:27:24.927Z,55.3558
2023-04-18T00:28:26.341Z,55.1185
2023-04-18T00:29:27.829Z,55.1458
2023-04-18T00:30:29.237Z,55.2996
2023-04-18T00:31:30.698Z,55.4184
2023-04-18T00:32:31.999Z,55.4851
2023-04-18T00:33:33.495Z,55.4968
2023-04-18T00:34:34.844Z,55.4570
2023-04-18T00:35:36.789Z,55.4963
2023-04-18T00:36:37.812Z,55.5172
2023-04-18T00:37:39.157Z,55.4978
2023-04-18T00:38:40.543Z,55.4541
2023-04-18T00:39:42.086Z,55.4029
2023-04-18T00:40:43.455Z,55.5182
2023-04-18T00:41:44.916Z,55.2756
2023-04-18T00:42:46.252Z,55.0709
2023-04-18T00:43:47.719Z,55.2253
2023-04-18T00:44:49.098Z,55.2804
2023-04-18T00:45:50.616Z,55.3310
2023-04-18T00:46:52.017Z,55.4796
2023-04-18T00:47:53.462Z,55.5384
2023-04-18T00:48:54.815Z,55.4807
2023-04-18T00:49:56.288Z,55.5224
2023-04-18T00:50:57.762Z,55.5780
2023-04-18T00:51:59.211Z,55.4911
2023-04-18T00:53:00.555Z,55.4698
2023-04-18T00:54:01.979Z,55.3402
2023-04-18T00:55:03.364Z,55.3557
2023-04-18T00:56:05.276Z,55.3366
2023-04-18T00:57:06.276Z,55.4176
2023-04-18T00:58:07.673Z,55.1229
2023-04-18T00:59:09.151Z,55.1887
2023-04-18T01:00:10.527Z,55.1666
2023-04-18T01:01:12.044Z,55.3344
2023-04-18T01:02:13.452Z,55.4021
2023-04-18T01:03:14.959Z,55.5050
2023-04-18T01:04:17.345Z,55.4236
2023-04-18T01:05:17.656Z,55.3077
2023-04-18T01:06:19.232Z,55.4093
2023-04-18T01:07:20.516Z,55.4967
2023-04-18T01:08:21.909Z,55.3629
2023-04-18T01:09:23.359Z,55.3780
2023-04-18T01:10:24.776Z,55.3817
2023-04-18T01:11:26.289Z,55.3272
2023-04-18T01:12:27.678Z,55.2088
2023-04-18T01:13:29.100Z,55.1549
2023-04-18T01:14:30.481Z,55.2710
2023-04-18T01:15:31.991Z,55.1478
2023-04-18T01:16:33.397Z,55.1176
2023-04-18T01:17:34.873Z,55.2235
2023-04-18T01:18:36.273Z,55.1151
2023-04-18T01:19:37.646Z,55.1080
2023-04-18T01:20:39.007Z,55.2837
2023-04-18T01:21:40.557Z,55.3310
2023-04-18T01:22:41.885Z,55.3805
2023-04-18T01:23:43.331Z,55.5004
2023-04-18T01:24:44.763Z,55.6207
2023-04-18T01:25:46.202Z,55.5356
2023-04-18T01:26:47.700Z,55.6249
2023-04-18T01:27:49.164Z,55.5106
2023-04-18T01:28:50.491Z,55.5384
2023-04-18T01:29:51.991Z,55.4976
2023-04-18T01:30:53.370Z,55.4580
2023-04-18T01:31:55.034Z,55.5206
2023-04-18T01:32:56.393Z,55.4238
2023-04-18T01:33:57.844Z,55.5424
2023-04-18T01:34:59.206Z,55.4524
2023-04-18T01:36:00.615Z,55.3853
2023-04-18T01:37:02.162Z,55.2687
2023-04-18T01:38:03.575Z,55.3647
2023-04-18T01:39:04.893Z,55.4194
2023-04-18T01:40:06.349Z,55.4813
2023-04-18T01:41:07.758Z,55.6399
2023-04-18T01:42:09.300Z,55.6945
2023-04-18T01:43:10.643Z,55.6059
2023-04-18T01:44:12.296Z,55.5688
2023-04-18T01:45:13.468Z,55.6507
2023-04-18T01:46:15.019Z,55.5540
2023-04-18T01:47:16.423Z,55.6653
2023-04-18T01:48:17.919Z,55.5322
2023-04-18T01:49:19.216Z,55.5450
2023-04-18T01:50:20.696Z,55.5847
2023-04-18T01:51:22.072Z,55.4709
2023-04-18T01:52:23.633Z,55.3872
2023-04-18T01:53:24.977Z,55.3542
2023-04-18T01:54:26.405Z,55.4382
2023-04-18T01:55:27.794Z,55.3664
2023-04-18T01:56:29.398Z,55.5026
2023-04-18T01:57:30.764Z,55.5486
2023-04-18T01:58:32.159Z,55.5175
2023-04-18T01:59:33.489Z,55.3918
2023-04-18T02:00:35.012Z,55.4029
2023-04-18T02:01:36.433Z,55.1532
2023-04-18T02:02:38.052Z,55.1122
2023-04-18T02:03:39.514Z,55.1620
2023-04-18T02:04:40.727Z,55.2187
2023-04-18T02:05:42.108Z,55.2911
2023-04-18T02:06:43.607Z,55.3590
2023-04-18T02:07:44.994Z,55.4000
2023-04-18T02:08:46.519Z,55.5887
2023-04-18T02:09:47.775Z,55.5541
2023-04-18T02:10:49.261Z,55.5736
2023-04-18T02:11:50.654Z,55.6744
2023-04-18T02:12:52.155Z,55.6391
2023-04-18T02:13:53.597Z,55.6833
2023-04-18T02:14:54.999Z,55.5953
2023-04-18T02:15:56.382Z,55.7185
2023-04-18T02:16:57.950Z,55.5045
2023-04-18T02:17:59.378Z,55.4809
2023-04-18T02:19:00.727Z,55.4790
2023-04-18T02:20:02.161Z,55.4222
2023-04-18T02:21:03.591Z,55.3980
2023-04-18T02:22:04.962Z,55.5364
2023-04-18T02:23:06.451Z,55.4709
2023-04-18T02:24:07.904Z,55.4491
2023-04-18T02:25:09.293Z,55.3875
2023-04-18T02:26:10.693Z,55.4641
2023-04-18T02:27:12.136Z,55.6225
2023-04-18T02:28:13.597Z,55.5545
2023-04-18T02:29:15.036Z,55.7004
2023-04-18T02:30:16.447Z,55.4183
2023-04-18T02:31:17.842Z,55.3951
2023-04-18T02:32:19.279Z,55.4990
2023-04-18T02:33:20.802Z,55.4673
2023-04-18T02:34:22.216Z,55.5732
2023-04-18T02:35:23.641Z,55.5509
2023-04-18T02:36:25.049Z,55.5691
2023-04-18T02:37:26.522Z,55.4228
2023-04-18T02:38:28.301Z,55.2955
2023-04-18T02:39:29.332Z,55.3214
2023-04-18T02:40:30.766Z,55.3938
2023-04-18T02:41:32.199Z,55.5322
2023-04-18T02:42:33.714Z,55.7468
2023-04-18T02:43:35.080Z,55.7535
2023-04-18T02:44:36.762Z,55.8082
2023-04-18T02:45:37.927Z,55.7631
2023-04-18T02:46:39.305Z,55.8087
2023-04-18T02:47:51.127Z,55.9383
2023-04-18T02:48:42.322Z,55.9170
2023-04-18T02:49:43.664Z,55.9024
2023-04-18T02:50:44.992Z,55.8925
2023-04-18T02:51:46.487Z,55.8934
2023-04-18T02:52:47.927Z,55.9285
2023-04-18T02:53:49.394Z,55.9754
2023-04-18T02:54:50.834Z,55.5907
2023-04-18T02:55:52.217Z,54.7270
2023-04-18T02:56:53.649Z,53.4584
2023-04-18T02:57:55.088Z,51.5203
2023-04-18T02:58:56.525Z,50.3894
2023-04-18T02:59:58.010Z,49.9806
2023-04-18T03:00:59.340Z,49.8755
2023-04-18T03:02:00.909Z,50.0032
2023-04-18T03:03:02.344Z,50.0481
2023-04-18T03:04:03.744Z,50.4609
2023-04-18T03:05:05.211Z,50.7159
2023-04-18T03:06:06.564Z,50.4377
2023-04-18T03:07:08.728Z,50.3578
2023-04-18T03:08:09.349Z,50.2618
2023-04-18T03:09:10.838Z,50.0816
2023-04-18T03:10:12.344Z,50.1286
2023-04-18T03:11:13.676Z,50.2517
2023-04-18T03:12:15.046Z,50.4549
2023-04-18T03:13:16.538Z,50.7056
2023-04-18T03:14:17.958Z,50.7389
2023-04-18T03:15:19.403Z,50.3768
2023-04-18T03:16:20.958Z,50.2289
2023-04-18T03:17:22.256Z,50.2591
2023-04-18T03:18:23.605Z,50.4706
2023-04-18T03:19:25.130Z,50.6269
2023-04-18T03:20:26.563Z,50.5782
2023-04-18T03:21:27.964Z,50.5159
2023-04-18T03:22:29.322Z,50.5247
2023-04-18T03:23:30.790Z,50.6503
2023-04-18T03:24:32.293Z,50.7413
2023-04-18T03:25:33.794Z,50.9109
2023-04-18T03:26:35.107Z,50.7198
2023-04-18T03:27:36.510Z,50.4396
2023-04-18T03:28:37.934Z,50.3436
2023-04-18T03:29:39.405Z,50.3892
2023-04-18T03:30:40.802Z,50.5088
2023-04-18T03:31:42.277Z,50.7043
2023-04-18T03:32:43.715Z,50.8317
2023-04-18T03:33:45.083Z,50.4867
2023-04-18T03:34:46.549Z,50.1094
2023-04-18T03:35:48.116Z,50.0083
2023-04-18T03:36:49.354Z,50.0966
2023-04-18T03:37:50.829Z,50.2567
2023-04-18T03:38:52.232Z,50.3891
2023-04-18T03:39:53.725Z,50.4493
2023-04-18T03:40:55.124Z,50.5256
2023-04-18T03:41:56.540Z,50.8005
2023-04-18T03:42:57.927Z,51.0353
2023-04-18T03:43:59.438Z,50.9742
2023-04-18T03:45:01.252Z,50.7287
2023-04-18T03:46:02.373Z,50.5814
2023-04-18T03:47:03.647Z,50.4906
2023-04-18T03:48:05.088Z,50.5002
2023-04-18T03:49:06.429Z,50.6094
2023-04-18T03:50:07.959Z,50.6791
2023-04-18T03:51:09.344Z,50.8316
2023-04-18T03:52:10.787Z,50.8106
2023-04-18T03:53:12.195Z,50.7909
2023-04-18T03:54:13.886Z,50.7082
2023-04-18T03:55:15.376Z,50.6756
2023-04-18T03:56:16.574Z,50.7785
2023-04-18T03:57:17.875Z,50.8673
2023-04-18T03:58:19.313Z,50.8282
2023-04-18T03:59:20.752Z,50.5428
2023-04-18T04:00:22.402Z,50.3835
2023-04-18T04:01:23.682Z,50.3640
2023-04-18T04:02:25.237Z,50.4104
2023-04-18T04:03:26.541Z,50.5380
2023-04-18T04:04:28.016Z,50.6569
2023-04-18T04:05:29.453Z,50.8967
2023-04-18T04:06:30.857Z,51.0251
2023-04-18T04:07:32.244Z,51.0208
2023-04-18T04:08:33.697Z,51.0424
2023-04-18T04:09:35.153Z,50.8854
2023-04-18T04:10:36.547Z,50.7728
2023-04-18T04:11:38.020Z,50.6997
2023-04-18T04:12:39.447Z,50.7597
2023-04-18T04:13:40.818Z,50.8247
2023-04-18T04:14:42.244Z,50.7829
2023-04-18T04:15:43.766Z,50.8776
2023-04-18T04:16:45.259Z,50.9822
2023-04-18T04:17:46.642Z,50.9928
2023-04-18T04:18:47.979Z,50.7660
2023-04-18T04:19:49.416Z,50.7733
2023-04-18T04:20:50.820Z,50.8015
2023-04-18T04:21:52.285Z,50.8955
2023-04-18T04:22:53.682Z,51.0441
2023-04-18T04:23:55.104Z,50.9660
2023-04-18T04:24:56.494Z,50.9636
2023-04-18T04:25:58.094Z,50.7870
2023-04-18T04:26:59.450Z,50.8086
2023-04-18T04:28:00.865Z,51.1433
2023-04-18T04:29:02.227Z,50.9678
2023-04-18T04:30:03.761Z,50.8812
2023-04-18T04:31:05.140Z,51.0971
2023-04-18T04:32:06.746Z,51.1873
2023-04-18T04:33:07.961Z,51.1567
2023-04-18T04:34:09.395Z,51.1827
2023-04-18T04:35:10.762Z,51.2229
2023-04-18T04:36:12.305Z,51.2847
2023-04-18T04:37:13.748Z,51.3997
2023-04-18T04:38:15.196Z,51.5580
2023-04-18T04:39:16.567Z,51.4321
2023-04-18T04:40:17.973Z,51.2711
2023-04-18T04:41:19.410Z,51.1149
2023-04-18T04:42:20.934Z,51.1158
2023-04-18T04:43:22.280Z,51.1638
2023-04-18T04:44:23.744Z,51.2964
2023-04-18T04:45:25.052Z,51.4183
2023-04-18T04:46:26.576Z,51.4128
2023-04-18T04:47:28.094Z,51.3734
2023-04-18T04:48:29.446Z,51.3027
2023-04-18T04:49:30.846Z,51.3265
2023-04-18T04:50:32.307Z,51.4357
2023-04-18T04:51:33.720Z,51.5263
2023-04-18T04:52:35.131Z,51.4744
2023-04-18T04:53:36.575Z,51.3920
2023-04-18T04:54:38.045Z,51.0726
2023-04-18T04:55:39.382Z,50.6260
2023-04-18T04:56:40.903Z,50.0444
2023-04-18T04:57:42.370Z,49.2136
2023-04-18T04:58:43.800Z,48.6429
2023-04-18T04:59:45.145Z,48.1334
2023-04-18T05:00:46.610Z,47.8478
2023-04-18T05:01:48.068Z,47.4952
2023-04-18T05:02:49.617Z,47.1914
2023-04-18T05:03:51.512Z,46.8309
2023-04-18T05:04:52.359Z,46.5195
2023-04-18T05:05:53.739Z,46.6886
2023-04-18T05:06:55.168Z,46.8618
2023-04-18T05:07:56.612Z,46.0195
2023-04-18T05:08:58.068Z,45.6150
2023-04-18T05:09:59.582Z,45.5066
2023-04-18T05:11:00.835Z,44.7857
2023-04-18T05:12:02.328Z,45.2252
2023-04-18T05:13:03.717Z,44.9671
2023-04-18T05:14:05.286Z,44.9236
2023-04-18T05:15:06.623Z,45.1144
2023-04-18T05:16:08.044Z,46.0909
2023-04-18T05:17:09.512Z,45.1300
2023-04-18T05:18:10.914Z,44.3981
2023-04-18T05:19:12.405Z,43.9789
2023-04-18T05:20:13.870Z,44.1287
2023-04-18T05:21:15.249Z,44.3278
2023-04-18T05:22:16.666Z,45.6369
2023-04-18T05:23:18.101Z,45.2081
2023-04-18T05:24:19.496Z,44.8227
2023-04-18T05:25:20.968Z,43.8857
2023-04-18T05:26:22.404Z,44.1847
2023-04-18T05:27:23.799Z,44.8014
2023-04-18T05:28:25.152Z,44.9232
2023-04-18T05:29:26.611Z,44.2149
2023-04-18T05:30:28.047Z,43.5840
2023-04-18T05:31:29.587Z,43.9345
2023-04-18T05:32:30.969Z,44.3000
2023-04-18T05:33:32.399Z,44.6912
2023-04-18T05:34:33.973Z,44.2155
2023-04-18T05:35:35.314Z,43.8702
2023-04-18T05:36:36.722Z,43.5490
2023-04-18T05:37:38.139Z,44.0637
2023-04-18T05:38:39.630Z,44.2849
2023-04-18T05:39:41.042Z,44.8819
2023-04-18T05:40:42.458Z,44.1436
2023-04-18T05:41:43.818Z,43.6059
2023-04-18T05:42:45.347Z,43.4403
2023-04-18T05:43:54.531Z,44.0314
2023-04-18T05:44:48.192Z,44.1211
2023-04-18T05:45:49.537Z,44.4705
2023-04-18T05:46:50.965Z,44.0578
2023-04-18T05:47:52.908Z,43.4611
2023-04-18T05:48:53.995Z,43.5605
2023-04-18T05:49:55.272Z,43.8962
2023-04-18T05:50:56.771Z,44.5140
2023-04-18T05:51:58.928Z,43.9664
2023-04-18T05:52:59.627Z,44.0694
2023-04-18T05:54:01.145Z,43.3535
2023-04-18T05:55:02.453Z,43.5365
2023-04-18T05:56:03.838Z,44.1393
2023-04-18T05:57:05.263Z,44.6715
2023-04-18T05:58:06.879Z,44.0224
2023-04-18T05:59:08.137Z,43.7068
2023-04-18T06:00:09.587Z,43.4844
2023-04-18T06:01:10.981Z,43.9112
2023-04-18T06:02:12.509Z,44.4334
2023-04-18T06:03:14.046Z,44.4071
2023-04-18T06:04:15.640Z,44.0544
2023-04-18T06:05:16.835Z,43.6719
2023-04-18T06:06:18.108Z,43.7900
2023-04-18T06:07:19.579Z,44.1253
2023-04-18T06:08:20.993Z,44.6203
2023-04-18T06:09:22.390Z,44.0277
2023-04-18T06:10:23.924Z,43.5073
2023-04-18T06:11:25.830Z,43.4998
2023-04-18T06:12:26.728Z,43.7969
2023-04-18T06:13:28.337Z,44.6534
2023-04-18T06:14:29.619Z,44.3223
2023-04-18T06:15:30.897Z,44.0980
2023-04-18T06:16:32.513Z,43.8038
2023-04-18T06:17:33.833Z,43.6867
2023-04-18T06:18:35.298Z,44.1887
2023-04-18T06:19:36.687Z,44.7451
2023-04-18T06:20:38.167Z,44.0451
2023-04-18T06:21:39.525Z,43.7835
2023-04-18T06:22:41.108Z,43.7426
2023-04-18T06:23:42.462Z,43.9363
2023-04-18T06:24:43.876Z,44.8429
2023-04-18T06:25:45.257Z,44.1370
2023-04-18T06:26:46.674Z,43.2193
2023-04-18T06:27:48.198Z,43.9172
2023-04-18T06:28:49.900Z,43.6989
2023-04-18T06:29:51.006Z,44.3503
2023-04-18T06:30:52.661Z,44.7908
2023-04-18T06:31:53.889Z,43.8145
2023-04-18T06:32:55.244Z,43.5782
2023-04-18T06:33:56.884Z,43.6799
2023-04-18T06:34:58.114Z,44.3132
2023-04-18T06:35:59.564Z,44.9004
2023-04-18T06:37:00.964Z,44.4956
2023-04-18T06:38:02.453Z,44.2923
2023-04-18T06:39:03.908Z,43.6604
2023-04-18T06:40:05.298Z,43.6045
2023-04-18T06:41:06.692Z,44.4822
2023-04-18T06:42:08.852Z,44.5087
2023-04-18T06:43:09.532Z,44.3459
2023-04-18T06:44:11.078Z,43.8215
2023-04-18T06:45:12.372Z,43.7799
2023-04-18T06:46:13.917Z,44.5441
2023-04-18T06:47:15.176Z,44.7657
2023-04-18T06:48:16.571Z,43.4503
2023-04-18T06:49:18.104Z,43.2452
2023-04-18T06:50:19.538Z,43.7355
2023-04-18T06:51:20.939Z,44.0082
2023-04-18T06:52:22.329Z,45.0785
2023-04-18T06:53:23.748Z,45.0335
2023-04-18T06:54:25.215Z,44.4710
2023-04-18T06:55:26.678Z,44.0728
2023-04-18T06:56:28.131Z,43.8193
2023-04-18T06:57:29.452Z,44.8462
2023-04-18T06:58:30.850Z,44.8232
2023-04-18T06:59:32.351Z,44.7646
2023-04-18T07:00:33.825Z,44.2414
2023-04-18T07:01:35.906Z,44.0322
2023-04-18T07:02:36.695Z,44.8647
2023-04-18T07:03:38.039Z,44.6324
2023-04-18T07:04:39.495Z,43.8358
2023-04-18T07:05:40.977Z,44.1548
2023-04-18T07:06:42.280Z,44.3784
2023-04-18T07:07:43.712Z,44.2391
2023-04-18T07:08:45.090Z,45.1071
2023-04-18T07:09:46.597Z,43.7904
2023-04-18T07:10:47.997Z,44.0874
2023-04-18T07:11:49.415Z,43.9516
2023-04-18T07:12:50.791Z,44.0358
2023-04-18T07:13:52.282Z,44.6233
2023-04-18T07:14:54.354Z,44.0511
2023-04-18T07:15:55.403Z,43.3172
2023-04-18T07:16:56.542Z,43.8906
2023-04-18T07:17:58.870Z,44.2728
2023-04-18T07:18:59.375Z,44.3243
2023-04-18T07:20:00.850Z,43.8385
2023-04-18T07:21:02.299Z,43.8860
2023-04-18T07:22:03.667Z,43.9822
2023-04-18T07:23:05.000Z,43.6381
2023-04-18T07:24:06.511Z,43.8531
2023-04-18T07:25:07.976Z,44.6155
2023-04-18T07:26:09.368Z,43.5185
2023-04-18T07:27:10.849Z,43.6021
2023-04-18T07:28:12.193Z,43.6755
2023-04-18T07:29:13.617Z,43.9641
2023-04-18T07:30:15.064Z,43.9815
2023-04-18T07:31:16.731Z,43.6963
2023-04-18T07:32:17.876Z,42.5486
2023-04-18T07:33:19.323Z,42.9547
2023-04-18T07:34:20.694Z,43.4492
2023-04-18T07:35:22.234Z,43.3730
2023-04-18T07:36:23.644Z,44.3136
2023-04-18T07:37:25.041Z,43.8366
2023-04-18T07:38:26.408Z,43.7573
2023-04-18T07:39:27.846Z,43.4725
2023-04-18T07:40:29.260Z,43.6296
2023-04-18T07:41:30.727Z,44.6908
2023-04-18T07:42:32.074Z,43.6299
2023-04-18T07:43:33.580Z,43.1239
2023-04-18T07:44:34.921Z,42.8971
2023-04-18T07:45:36.409Z,43.5555
2023-04-18T07:46:37.843Z,44.0465
2023-04-18T07:47:39.269Z,44.2594
2023-04-18T07:48:40.682Z,43.6008
2023-04-18T07:49:42.073Z,43.4432
2023-04-18T07:50:43.568Z,43.7760
2023-04-18T07:51:44.918Z,44.0059
2023-04-18T07:52:46.290Z,44.7593
2023-04-18T07:53:47.707Z,43.7874
2023-04-18T07:54:49.108Z,43.6599
2023-04-18T07:55:50.625Z,43.9026
2023-04-18T07:56:52.046Z,44.2552
2023-04-18T07:57:53.456Z,44.5531
2023-04-18T07:58:54.873Z,43.9662
2023-04-18T07:59:56.227Z,44.0716
2023-04-18T08:00:57.772Z,43.6721
2023-04-18T08:01:59.285Z,44.1151
2023-04-18T08:03:00.741Z,44.7359
2023-04-18T08:04:02.346Z,43.4134
2023-04-18T08:05:03.558Z,43.0489
2023-04-18T08:06:04.912Z,43.1915
2023-04-18T08:07:06.251Z,43.2979
2023-04-18T08:08:07.622Z,44.0647
2023-04-18T08:09:09.070Z,44.0635
2023-04-18T08:10:10.476Z,43.0350
2023-04-18T08:11:11.996Z,43.0669
2023-04-18T08:12:13.353Z,42.8155
2023-04-18T08:13:14.780Z,43.2173
2023-04-18T08:14:16.132Z,44.1485
2023-04-18T08:15:17.575Z,43.9285
2023-04-18T08:16:19.033Z,44.6836
2023-04-18T08:17:20.531Z,45.1748
2023-04-18T08:18:21.839Z,45.4588
2023-04-18T08:19:23.285Z,46.4937
2023-04-18T08:20:24.672Z,46.4595
2023-04-18T08:21:26.174Z,45.7636
2023-04-18T08:22:27.551Z,46.3568
2023-04-18T08:23:28.991Z,46.7884
2023-04-18T08:24:30.358Z,47.2280
2023-04-18T08:25:31.892Z,47.7342
2023-04-18T08:26:33.338Z,46.5340
2023-04-18T08:27:34.749Z,47.2127
2023-04-18T08:28:36.065Z,47.3981
2023-04-18T08:29:37.549Z,48.3173
2023-04-18T08:30:38.908Z,48.6015
2023-04-18T08:31:40.429Z,48.2579
2023-04-18T08:32:41.843Z,47.4570
2023-04-18T08:33:43.194Z,48.2539
2023-04-18T08:34:44.579Z,48.9175
2023-04-18T08:35:46.050Z,49.6140
2023-04-18T08:36:47.494Z,50.6167
2023-04-18T08:37:49.010Z,49.3186
2023-04-18T08:38:50.192Z,48.0727
2023-04-18T08:39:51.764Z,48.4653
2023-04-18T08:40:53.130Z,49.7692
2023-04-18T08:41:54.632Z,50.4650
2023-04-18T08:42:56.000Z,51.5700
2023-04-18T08:43:57.393Z,48.8428
2023-04-18T08:44:58.743Z,48.5248
2023-04-18T08:46:00.305Z,49.2189
2023-04-18T08:47:01.837Z,50.6746
2023-04-18T08:48:03.204Z,50.4039
2023-04-18T08:49:04.540Z,50.7609
2023-04-18T08:50:06.061Z,48.9089
2023-04-18T08:51:07.334Z,48.9768
2023-04-18T08:52:08.770Z,49.3507
2023-04-18T08:53:10.284Z,49.7893
2023-04-18T08:54:11.653Z,49.8881
2023-04-18T08:55:13.041Z,50.6931
2023-04-18T08:56:14.427Z,48.3297
2023-04-18T08:57:15.904Z,48.6664
2023-04-18T08:58:17.295Z,49.5405
2023-04-18T08:59:18.691Z,50.2810
2023-04-18T09:00:20.132Z,50.4035
2023-04-18T09:01:21.608Z,51.0304
2023-04-18T09:02:23.138Z,48.6279
2023-04-18T09:03:24.484Z,48.9999
2023-04-18T09:04:25.870Z,49.8217
2023-04-18T09:05:27.374Z,50.8025
2023-04-18T09:06:28.684Z,51.0467
2023-04-18T09:07:30.122Z,51.2603
2023-04-18T09:08:31.533Z,48.5478
2023-04-18T09:09:32.956Z,48.9106
2023-04-18T09:10:34.393Z,50.7989
2023-04-18T09:11:35.802Z,50.3919
2023-04-18T09:12:37.285Z,51.4539
2023-04-18T09:13:38.776Z,50.0522
2023-04-18T09:14:40.073Z,48.4671
2023-04-18T09:15:42.325Z,48.8016
2023-04-18T09:16:42.918Z,50.1896
2023-04-18T09:17:44.337Z,50.9258
2023-04-18T09:18:45.772Z,51.3756
2023-04-18T09:19:47.453Z,49.0286
2023-04-18T09:20:48.543Z,47.7484
2023-04-18T09:21:50.038Z,48.2076
2023-04-18T09:22:51.411Z,49.6313
2023-04-18T09:23:52.944Z,49.3429
2023-04-18T09:24:54.322Z,50.3398
2023-04-18T09:25:55.723Z,48.5281
2023-04-18T09:26:57.125Z,47.8619
2023-04-18T09:27:58.551Z,48.8713
2023-04-18T09:28:59.998Z,49.5786
2023-04-18T09:30:01.471Z,51.1835
2023-04-18T09:31:02.891Z,50.7824
2023-04-18T09:32:04.227Z,50.0066
2023-04-18T09:33:05.790Z,48.4868
2023-04-18T09:34:07.149Z,49.3044
2023-04-18T09:35:08.557Z,49.9301
2023-04-18T09:36:10.057Z,51.7608
2023-04-18T09:37:11.559Z,50.5345
2023-04-18T09:38:12.900Z,50.9517
2023-04-18T09:39:14.455Z,48.1752
2023-04-18T09:40:15.878Z,48.5480
2023-04-18T09:41:19.898Z,49.4361
2023-04-18T09:42:18.578Z,50.0821
2023-04-18T09:43:20.042Z,50.4782
2023-04-18T09:44:21.477Z,50.3606
2023-04-18T09:45:22.873Z,48.0308
2023-04-18T09:46:24.265Z,48.1092
2023-04-18T09:47:25.797Z,49.2570
2023-04-18T09:48:27.214Z,50.3579
2023-04-18T09:49:28.607Z,51.0358
2023-04-18T09:50:30.031Z,48.9499
2023-04-18T09:51:31.344Z,48.2984
2023-04-18T09:52:32.752Z,48.2038
2023-04-18T09:53:34.226Z,49.9876
2023-04-18T09:54:35.713Z,50.6599
2023-04-18T09:55:37.135Z,51.8880
2023-04-18T09:56:38.574Z,50.2763
2023-04-18T09:57:40.021Z,48.2006
2023-04-18T09:58:41.318Z,48.5978
2023-04-18T09:59:42.793Z,49.1146
2023-04-18T10:00:46.363Z,49.3163
2023-04-18T10:01:45.626Z,50.3789
2023-04-18T10:02:47.120Z,47.7057
2023-04-18T10:03:48.665Z,47.7413
2023-04-18T10:04:49.951Z,48.0938
2023-04-18T10:05:51.424Z,49.8105
2023-04-18T10:06:53.446Z,49.3382
2023-04-18T10:07:54.085Z,51.2153
2023-04-18T10:08:55.587Z,47.9084
2023-04-18T10:09:57.004Z,47.6946
2023-04-18T10:10:58.417Z,48.4513
2023-04-18T10:11:59.803Z,49.5322
2023-04-18T10:13:01.226Z,49.8981
2023-04-18T10:14:02.596Z,51.3180
2023-04-18T10:15:04.136Z,48.1539
2023-04-18T10:16:05.989Z,48.2693
2023-04-18T10:17:06.963Z,49.0122
2023-04-18T10:18:08.339Z,50.2273
2023-04-18T10:19:09.892Z,49.1120
2023-04-18T10:20:11.209Z,49.5153
2023-04-18T10:21:12.597Z,47.5403
2023-04-18T10:22:14.043Z,47.9613
2023-04-18T10:23:15.425Z,49.4436
2023-04-18T10:24:16.803Z,50.6490
2023-04-18T10:25:18.337Z,50.7224
2023-04-18T10:26:19.734Z,50.3131
2023-04-18T10:27:21.099Z,47.7390
2023-04-18T10:28:23.408Z,47.9471
2023-04-18T10:29:23.964Z,48.8316
2023-04-18T10:30:25.465Z,50.3579
2023-04-18T10:31:27.160Z,50.6382
2023-04-18T10:32:28.317Z,49.8275
2023-04-18T10:33:31.921Z,47.7391
2023-04-18T10:34:31.057Z,47.8944
2023-04-18T10:35:32.565Z,48.1612
2023-04-18T10:36:33.950Z,49.2141
2023-04-18T10:37:35.336Z,49.9593
2023-04-18T10:38:36.714Z,47.6636
2023-04-18T10:39:38.177Z,47.1300
2023-04-18T10:40:39.559Z,46.8402
2023-04-18T10:41:41.042Z,48.0342
2023-04-18T10:42:42.394Z,49.9442
2023-04-18T10:43:45.471Z,49.0092
2023-04-18T10:55:55.265Z,47.6555
2023-04-18T10:55:55.265Z,49.5468
2023-04-18T10:56:57.614Z,48.9202
2023-04-18T10:57:58.877Z,48.8642
2023-04-18T10:59:00.411Z,49.1632
2023-04-18T11:00:01.965Z,50.6845
2023-04-18T11:01:03.334Z,52.4729
2023-04-18T11:02:04.771Z,52.6101
2023-04-18T11:03:06.245Z,48.7586
2023-04-18T11:04:07.749Z,48.0790
2023-04-18T11:05:08.970Z,48.4743
2023-04-18T11:06:10.380Z,50.3413
2023-04-18T11:07:11.716Z,50.2386
2023-04-18T11:08:13.195Z,51.5147
2023-04-18T11:09:14.788Z,47.8445
2023-04-18T11:10:16.122Z,47.5922
2023-04-18T11:11:17.567Z,48.0000
2023-04-18T11:12:18.863Z,48.8860
2023-04-18T11:13:20.325Z,51.5808
2023-04-18T11:14:21.758Z,49.8531
2023-04-18T11:15:23.161Z,47.8076
2023-04-18T11:16:24.610Z,47.7511
2023-04-18T11:17:26.164Z,48.4507
2023-04-18T11:18:27.493Z,49.8011
2023-04-18T11:19:28.858Z,50.8145
2023-04-18T11:20:30.309Z,49.5466
2023-04-18T11:21:31.698Z,47.5307
2023-04-18T11:22:33.202Z,47.3084
2023-04-18T11:23:34.604Z,47.9790
2023-04-18T11:24:35.981Z,49.4851
2023-04-18T11:25:37.340Z,51.1253
2023-04-18T11:26:38.817Z,49.3665
2023-04-18T11:27:40.241Z,47.8486
2023-04-18T11:28:41.684Z,47.3616
2023-04-18T11:29:43.113Z,48.2384
2023-04-18T11:30:44.496Z,49.7045
2023-04-18T11:31:46.001Z,50.5102
2023-04-18T11:32:47.482Z,49.7833
2023-04-18T11:33:48.831Z,48.5051
2023-04-18T11:34:50.186Z,47.3760
2023-04-18T11:35:51.635Z,47.9043
2023-04-18T11:36:53.155Z,48.7499
2023-04-18T11:37:54.504Z,50.8824
2023-04-18T11:38:55.973Z,50.3527
2023-04-18T11:39:57.236Z,48.4441
2023-04-18T11:40:58.729Z,47.2991
2023-04-18T11:42:00.201Z,47.5339
2023-04-18T11:43:01.604Z,48.4522
2023-04-18T11:44:03.076Z,50.2958
2023-04-18T11:45:04.425Z,49.7845
2023-04-18T11:46:05.867Z,47.7014
2023-04-18T11:47:07.194Z,47.3673
2023-04-18T11:48:08.861Z,47.7699
2023-04-18T11:49:10.304Z,48.9660
2023-04-18T11:50:11.576Z,51.2127
2023-04-18T11:51:12.998Z,51.5893
2023-04-18T11:52:14.417Z,47.7816
2023-04-18T11:53:15.718Z,47.2116
2023-04-18T11:54:17.293Z,47.8506
2023-04-18T11:55:18.676Z,49.4425
2023-04-18T11:56:20.128Z,50.3804
2023-04-18T11:57:21.567Z,50.4345
2023-04-18T11:58:22.967Z,47.4506
2023-04-18T11:59:24.485Z,47.6007
2023-04-18T12:00:25.735Z,47.8509
2023-04-18T12:01:27.111Z,49.7156
2023-04-18T12:02:28.798Z,50.9797
2023-04-18T12:03:30.319Z,48.9970
2023-04-18T12:04:31.723Z,47.2372
2023-04-18T12:05:33.044Z,47.7679
2023-04-18T12:06:34.345Z,48.4056
2023-04-18T12:07:35.731Z,50.7925
2023-04-18T12:08:37.077Z,50.4783
2023-04-18T12:09:38.701Z,47.9536
2023-04-18T12:10:40.069Z,47.5562
2023-04-18T12:11:41.469Z,47.6602
2023-04-18T12:12:42.989Z,48.4435
2023-04-18T12:13:44.256Z,50.0509
2023-04-18T12:14:45.732Z,52.1616
2023-04-18T12:15:47.219Z,48.1855
2023-04-18T12:16:48.543Z,47.7066
2023-04-18T12:17:50.006Z,47.7118
2023-04-18T12:18:51.354Z,48.8479
2023-04-18T12:19:52.919Z,49.8097
2023-04-18T12:20:54.372Z,49.8135
2023-04-18T12:21:55.671Z,47.3946
2023-04-18T12:22:57.161Z,47.0856
2023-04-18T12:23:58.569Z,48.0049
2023-04-18T12:24:59.964Z,48.8540
2023-04-18T12:26:01.449Z,49.3194
2023-04-18T12:27:02.820Z,49.6268
2023-04-18T12:28:04.398Z,47.3780
2023-04-18T12:29:05.711Z,47.5153
2023-04-18T12:30:07.206Z,48.0613
2023-04-18T12:31:08.600Z,50.2160
2023-04-18T12:32:09.855Z,49.4937
2023-04-18T12:33:11.326Z,48.2782